JTM125 ZJSY-VMMC
Flight info
| Callsign | JTM125 |
|---|---|
| Flight time | 1h 6m |
| Altitude | 31100 |
| Route | PORAP W222 SAMAS G221 BIGRO |
| Aircraft | B738/M-SDE2FGHIRWY/L |
Departure
| Time | 2026-04-21 15:46 |
|---|---|
| Airport | Sanya Phoenix International Airport (ZJSY) |
Arrival
| Time | 2026-04-21 16:53 |
|---|---|
| Airport | Macau International Airport (VMMC) |
| Time | Latitude | Longitude | Altitude | Speed | Heading |
|---|---|---|---|---|---|
| 2026-04-21 15:21 | 18.30632 | 109.41055 | 100 ft | 0 kts | 82° |
| 2026-04-21 15:37 | 18.30631 | 109.41048 | 103 ft | 2 kts | 82° |
| 2026-04-21 15:38 | 18.30629 | 109.41035 | 103 ft | 0 kts | 82° |
| 2026-04-21 15:38 | 18.30634 | 109.41073 | 103 ft | 11 kts | 90° |
| 2026-04-21 15:38 | 18.30577 | 109.41125 | 102 ft | 12 kts | 166° |
| 2026-04-21 15:38 | 18.30521 | 109.41136 | 100 ft | 0 kts | 169° |
| 2026-04-21 15:39 | 18.30514 | 109.41137 | 100 ft | 4 kts | 171° |
| 2026-04-21 15:39 | 18.30453 | 109.41078 | 97 ft | 17 kts | 250° |
| 2026-04-21 15:39 | 18.30434 | 109.40978 | 94 ft | 23 kts | 263° |
| 2026-04-21 15:39 | 18.30411 | 109.40803 | 90 ft | 25 kts | 261° |
| 2026-04-21 15:40 | 18.30378 | 109.40550 | 84 ft | 27 kts | 263° |
| 2026-04-21 15:40 | 18.30361 | 109.40413 | 80 ft | 28 kts | 262° |
| 2026-04-21 15:40 | 18.30337 | 109.40223 | 78 ft | 22 kts | 262° |
| 2026-04-21 15:40 | 18.30307 | 109.39999 | 74 ft | 24 kts | 261° |
| 2026-04-21 15:41 | 18.30292 | 109.39882 | 74 ft | 24 kts | 261° |
| 2026-04-21 15:41 | 18.30275 | 109.39749 | 74 ft | 12 kts | 261° |
| 2026-04-21 15:41 | 18.30244 | 109.39666 | 73 ft | 12 kts | 228° |
| 2026-04-21 15:41 | 18.30196 | 109.39640 | 72 ft | 0 kts | 189° |
| 2026-04-21 15:45 | 18.30124 | 109.39648 | 71 ft | 16 kts | 158° |
| 2026-04-21 15:45 | 18.30100 | 109.39738 | 70 ft | 24 kts | 89° |
| 2026-04-21 15:45 | 18.30132 | 109.40009 | 71 ft | 65 kts | 82° |
| 2026-04-21 15:45 | 18.30226 | 109.40729 | 83 ft | 130 kts | 82° |
| 2026-04-21 15:46 | 18.30378 | 109.41833 | 227 ft | 168 kts | 84° |
| 2026-04-21 15:46 | 18.30550 | 109.43070 | 864 ft | 175 kts | 84° |
| 2026-04-21 15:46 | 18.30712 | 109.44325 | 1588 ft | 177 kts | 88° |
| 2026-04-21 15:46 | 18.30865 | 109.45589 | 2308 ft | 180 kts | 88° |
| 2026-04-21 15:47 | 18.31041 | 109.46935 | 2853 ft | 193 kts | 87° |
| 2026-04-21 15:47 | 18.31534 | 109.48840 | 3494 ft | 221 kts | 60° |
| 2026-04-21 15:47 | 18.32268 | 109.49635 | 3813 ft | 235 kts | 39° |
| 2026-04-21 15:47 | 18.33724 | 109.50569 | 4328 ft | 250 kts | 31° |
| 2026-04-21 15:48 | 18.35260 | 109.51515 | 4879 ft | 261 kts | 32° |
| 2026-04-21 15:48 | 18.36779 | 109.52543 | 5530 ft | 265 kts | 34° |
| 2026-04-21 15:48 | 18.38909 | 109.54067 | 5912 ft | 292 kts | 34° |
| 2026-04-21 15:48 | 18.40056 | 109.54899 | 5896 ft | 307 kts | 34° |
| 2026-04-21 15:49 | 18.42388 | 109.56589 | 5885 ft | 293 kts | 34° |
| 2026-04-21 15:49 | 18.43483 | 109.57381 | 5888 ft | 280 kts | 34° |
| 2026-04-21 15:49 | 18.45043 | 109.58511 | 5889 ft | 266 kts | 34° |
| 2026-04-21 15:49 | 18.47148 | 109.60032 | 6337 ft | 283 kts | 34° |
| 2026-04-21 15:50 | 18.48207 | 109.60797 | 7078 ft | 277 kts | 33° |
| 2026-04-21 15:50 | 18.49824 | 109.61814 | 8054 ft | 272 kts | 27° |
| 2026-04-21 15:50 | 18.52136 | 109.62963 | 8924 ft | 288 kts | 23° |
| 2026-04-21 15:50 | 18.53410 | 109.63549 | 9314 ft | 300 kts | 22° |
| 2026-04-21 15:51 | 18.55354 | 109.64442 | 9934 ft | 314 kts | 22° |
| 2026-04-21 15:51 | 18.57396 | 109.65397 | 10512 ft | 329 kts | 23° |
| 2026-04-21 15:51 | 18.59536 | 109.66411 | 11041 ft | 345 kts | 23° |
| 2026-04-21 15:51 | 18.62552 | 109.67853 | 11731 ft | 365 kts | 24° |
| 2026-04-21 15:52 | 18.64900 | 109.68979 | 12194 ft | 380 kts | 23° |
| 2026-04-21 15:52 | 18.66526 | 109.69759 | 12574 ft | 387 kts | 24° |
| 2026-04-21 15:52 | 18.68987 | 109.70940 | 13342 ft | 391 kts | 24° |
| 2026-04-21 15:52 | 18.72319 | 109.72538 | 14359 ft | 397 kts | 23° |
| 2026-04-21 15:53 | 18.73979 | 109.73335 | 14903 ft | 399 kts | 23° |
| 2026-04-21 15:53 | 18.76512 | 109.74551 | 15668 ft | 403 kts | 23° |
| 2026-04-21 15:53 | 18.79945 | 109.76199 | 16625 ft | 409 kts | 23° |
| 2026-04-21 15:53 | 18.81670 | 109.77026 | 17101 ft | 411 kts | 23° |
| 2026-04-21 15:54 | 18.84302 | 109.78291 | 17777 ft | 415 kts | 23° |
| 2026-04-21 15:54 | 18.86933 | 109.79553 | 18432 ft | 420 kts | 23° |
| 2026-04-21 15:54 | 18.89640 | 109.80853 | 18712 ft | 426 kts | 23° |
| 2026-04-21 15:54 | 18.92317 | 109.82140 | 18730 ft | 423 kts | 23° |
| 2026-04-21 15:55 | 18.94975 | 109.83420 | 18734 ft | 421 kts | 23° |
| 2026-04-21 15:55 | 18.97679 | 109.84721 | 18734 ft | 422 kts | 23° |
| 2026-04-21 15:55 | 19.00340 | 109.86002 | 18735 ft | 422 kts | 23° |
| 2026-04-21 15:55 | 19.03929 | 109.87731 | 18734 ft | 422 kts | 23° |
| 2026-04-21 15:56 | 19.06596 | 109.89015 | 18730 ft | 421 kts | 23° |
| 2026-04-21 15:56 | 19.08359 | 109.89865 | 18725 ft | 422 kts | 23° |
| 2026-04-21 15:56 | 19.11037 | 109.91156 | 18725 ft | 421 kts | 23° |
| 2026-04-21 15:56 | 19.13712 | 109.92446 | 18720 ft | 421 kts | 23° |
| 2026-04-21 15:57 | 19.16368 | 109.93727 | 18714 ft | 422 kts | 23° |
| 2026-04-21 15:57 | 19.19119 | 109.95054 | 19109 ft | 431 kts | 23° |
| 2026-04-21 15:57 | 19.21815 | 109.96354 | 19945 ft | 430 kts | 23° |
| 2026-04-21 15:57 | 19.24563 | 109.97680 | 20582 ft | 434 kts | 23° |
| 2026-04-21 15:58 | 19.27304 | 109.98988 | 21177 ft | 438 kts | 22° |
| 2026-04-21 15:58 | 19.30131 | 110.00307 | 21762 ft | 442 kts | 22° |
| 2026-04-21 15:58 | 19.32957 | 110.01614 | 22326 ft | 447 kts | 22° |
| 2026-04-21 15:58 | 19.35793 | 110.02947 | 22903 ft | 451 kts | 22° |
| 2026-04-21 15:59 | 19.38699 | 110.04335 | 23521 ft | 454 kts | 22° |
| 2026-04-21 15:59 | 19.41532 | 110.05788 | 24062 ft | 459 kts | 27° |
| 2026-04-21 15:59 | 19.44211 | 110.07661 | 24628 ft | 466 kts | 35° |
| 2026-04-21 15:59 | 19.47507 | 110.10703 | 25378 ft | 472 kts | 41° |
| 2026-04-21 16:00 | 19.49066 | 110.12322 | 25794 ft | 474 kts | 43° |
| 2026-04-21 16:00 | 19.51371 | 110.14807 | 26642 ft | 470 kts | 43° |
| 2026-04-21 16:00 | 19.53630 | 110.17258 | 27354 ft | 470 kts | 43° |
| 2026-04-21 16:00 | 19.55973 | 110.19771 | 27528 ft | 481 kts | 42° |
| 2026-04-21 16:01 | 19.58358 | 110.22289 | 27957 ft | 486 kts | 42° |
| 2026-04-21 16:01 | 19.61558 | 110.25613 | 28747 ft | 487 kts | 41° |
| 2026-04-21 16:01 | 19.63187 | 110.27284 | 28913 ft | 490 kts | 41° |
| 2026-04-21 16:01 | 19.65626 | 110.29770 | 28935 ft | 486 kts | 41° |
| 2026-04-21 16:02 | 19.70497 | 110.34691 | 28936 ft | 483 kts | 40° |
| 2026-04-21 16:02 | 19.75352 | 110.39563 | 28942 ft | 483 kts | 40° |
| 2026-04-21 16:03 | 19.80258 | 110.44482 | 28941 ft | 483 kts | 40° |
| 2026-04-21 16:03 | 19.85949 | 110.50193 | 28939 ft | 483 kts | 40° |
| 2026-04-21 16:04 | 19.90817 | 110.55084 | 28938 ft | 483 kts | 40° |
| 2026-04-21 16:04 | 19.95692 | 110.59988 | 28935 ft | 482 kts | 40° |
| 2026-04-21 16:05 | 19.99760 | 110.64083 | 28940 ft | 482 kts | 40° |
| 2026-04-21 16:05 | 20.04682 | 110.69040 | 28931 ft | 490 kts | 41° |
| 2026-04-21 16:06 | 20.09599 | 110.74000 | 28933 ft | 489 kts | 41° |
| 2026-04-21 16:06 | 20.14570 | 110.79019 | 28935 ft | 490 kts | 41° |
| 2026-04-21 16:07 | 20.20328 | 110.84839 | 28926 ft | 491 kts | 41° |
| 2026-04-21 16:07 | 20.24447 | 110.89005 | 28929 ft | 491 kts | 41° |
| 2026-04-21 16:08 | 20.31875 | 110.96526 | 28920 ft | 492 kts | 41° |
| 2026-04-21 16:09 | 20.36846 | 111.01566 | 28925 ft | 492 kts | 41° |
| 2026-04-21 16:09 | 20.41811 | 111.06602 | 28925 ft | 492 kts | 41° |
| 2026-04-21 16:10 | 20.46750 | 111.11618 | 28925 ft | 492 kts | 41° |
| 2026-04-21 16:10 | 20.52544 | 111.17509 | 28929 ft | 492 kts | 41° |
| 2026-04-21 16:11 | 20.56680 | 111.21717 | 28931 ft | 493 kts | 41° |
| 2026-04-21 16:11 | 20.61606 | 111.26734 | 28935 ft | 493 kts | 41° |
| 2026-04-21 16:12 | 20.66574 | 111.31799 | 28936 ft | 492 kts | 41° |
| 2026-04-21 16:12 | 20.71542 | 111.36868 | 28942 ft | 493 kts | 41° |
| 2026-04-21 16:13 | 20.76463 | 111.41920 | 28951 ft | 494 kts | 43° |
| 2026-04-21 16:13 | 20.80523 | 111.47871 | 28951 ft | 501 kts | 62° |
| 2026-04-21 16:14 | 20.82453 | 111.55008 | 28947 ft | 506 kts | 81° |
| 2026-04-21 16:14 | 20.82400 | 111.62503 | 28946 ft | 509 kts | 96° |
| 2026-04-21 16:15 | 20.81225 | 111.69941 | 28947 ft | 509 kts | 101° |
| 2026-04-21 16:15 | 20.79795 | 111.77335 | 28951 ft | 508 kts | 101° |
| 2026-04-21 16:16 | 20.78367 | 111.84737 | 28960 ft | 509 kts | 101° |
| 2026-04-21 16:16 | 20.77016 | 111.92079 | 28967 ft | 509 kts | 99° |
| 2026-04-21 16:17 | 20.76631 | 111.99558 | 28962 ft | 506 kts | 81° |
| 2026-04-21 16:17 | 20.78432 | 112.06782 | 28968 ft | 505 kts | 70° |
| 2026-04-21 16:18 | 20.80831 | 112.13808 | 28962 ft | 503 kts | 68° |
| 2026-04-21 16:18 | 20.83737 | 112.21980 | 28965 ft | 501 kts | 67° |
| 2026-04-21 16:19 | 20.85714 | 112.27680 | 28691 ft | 480 kts | 68° |
| 2026-04-21 16:19 | 20.86834 | 112.30971 | 28348 ft | 469 kts | 68° |
| 2026-04-21 16:19 | 20.87929 | 112.34219 | 27713 ft | 467 kts | 68° |
| 2026-04-21 16:19 | 20.89015 | 112.37458 | 27126 ft | 462 kts | 68° |
| 2026-04-21 16:20 | 20.90436 | 112.41717 | 26319 ft | 457 kts | 69° |
| 2026-04-21 16:20 | 20.91147 | 112.43851 | 25922 ft | 454 kts | 69° |
| 2026-04-21 16:20 | 20.92549 | 112.48071 | 25134 ft | 449 kts | 69° |
| 2026-04-21 16:20 | 20.93582 | 112.51185 | 24542 ft | 445 kts | 69° |
| 2026-04-21 16:21 | 20.94273 | 112.53271 | 24189 ft | 441 kts | 69° |
| 2026-04-21 16:21 | 20.95286 | 112.56331 | 23604 ft | 438 kts | 69° |
| 2026-04-21 16:21 | 20.96624 | 112.60375 | 22866 ft | 432 kts | 69° |
| 2026-04-21 16:21 | 20.97617 | 112.63377 | 22313 ft | 428 kts | 69° |
| 2026-04-21 16:22 | 20.98279 | 112.65381 | 21955 ft | 425 kts | 69° |
| 2026-04-21 16:22 | 20.99583 | 112.69330 | 21218 ft | 420 kts | 69° |
| 2026-04-21 16:22 | 21.00220 | 112.71261 | 20847 ft | 418 kts | 69° |
| 2026-04-21 16:22 | 21.01186 | 112.74191 | 20321 ft | 413 kts | 69° |
| 2026-04-21 16:23 | 21.02132 | 112.77059 | 19751 ft | 410 kts | 69° |
| 2026-04-21 16:23 | 21.03066 | 112.79894 | 19196 ft | 406 kts | 69° |
| 2026-04-21 16:23 | 21.04006 | 112.82749 | 18624 ft | 403 kts | 69° |
| 2026-04-21 16:23 | 21.04924 | 112.85539 | 18066 ft | 399 kts | 69° |
| 2026-04-21 16:24 | 21.05843 | 112.88335 | 17520 ft | 395 kts | 69° |
| 2026-04-21 16:24 | 21.06739 | 112.91064 | 16974 ft | 391 kts | 69° |
| 2026-04-21 16:24 | 21.07634 | 112.93788 | 16375 ft | 389 kts | 69° |
| 2026-04-21 16:24 | 21.08822 | 112.97405 | 15588 ft | 385 kts | 69° |
| 2026-04-21 16:25 | 21.09411 | 112.99202 | 15200 ft | 383 kts | 69° |
| 2026-04-21 16:25 | 21.10289 | 113.01878 | 14596 ft | 381 kts | 70° |
| 2026-04-21 16:25 | 21.11161 | 113.04536 | 14026 ft | 378 kts | 70° |
| 2026-04-21 16:25 | 21.12031 | 113.07190 | 13452 ft | 374 kts | 70° |
| 2026-04-21 16:26 | 21.12878 | 113.09776 | 12864 ft | 372 kts | 70° |
| 2026-04-21 16:26 | 21.13733 | 113.12389 | 12260 ft | 370 kts | 70° |
| 2026-04-21 16:26 | 21.14579 | 113.14972 | 11747 ft | 364 kts | 71° |
| 2026-04-21 16:26 | 21.15684 | 113.18354 | 11026 ft | 360 kts | 71° |
| 2026-04-21 16:27 | 21.16505 | 113.20869 | 10873 ft | 356 kts | 71° |
| 2026-04-21 16:27 | 21.17324 | 113.23377 | 10874 ft | 359 kts | 71° |
| 2026-04-21 16:27 | 21.18146 | 113.25901 | 10878 ft | 360 kts | 71° |
| 2026-04-21 16:27 | 21.18971 | 113.28432 | 10879 ft | 360 kts | 71° |
| 2026-04-21 16:28 | 21.19528 | 113.30138 | 10883 ft | 361 kts | 71° |
| 2026-04-21 16:28 | 21.20353 | 113.32671 | 10882 ft | 361 kts | 71° |
| 2026-04-21 16:28 | 21.21176 | 113.35197 | 10880 ft | 361 kts | 71° |
| 2026-04-21 16:28 | 21.22272 | 113.38566 | 10880 ft | 359 kts | 71° |
| 2026-04-21 16:29 | 21.22827 | 113.40270 | 10882 ft | 360 kts | 71° |
| 2026-04-21 16:29 | 21.23915 | 113.43617 | 10890 ft | 361 kts | 71° |
| 2026-04-21 16:29 | 21.24470 | 113.45327 | 10888 ft | 360 kts | 71° |
| 2026-04-21 16:29 | 21.25289 | 113.47850 | 10889 ft | 361 kts | 71° |
| 2026-04-21 16:30 | 21.26111 | 113.50384 | 10884 ft | 360 kts | 71° |
| 2026-04-21 16:30 | 21.26935 | 113.52923 | 10885 ft | 361 kts | 71° |
| 2026-04-21 16:30 | 21.27757 | 113.55457 | 10884 ft | 360 kts | 71° |
| 2026-04-21 16:30 | 21.28616 | 113.58011 | 10886 ft | 361 kts | 68° |
| 2026-04-21 16:31 | 21.30302 | 113.61082 | 10891 ft | 362 kts | 46° |
| 2026-04-21 16:31 | 21.31579 | 113.62216 | 10891 ft | 360 kts | 31° |
| 2026-04-21 16:31 | 21.33822 | 113.63420 | 10888 ft | 361 kts | 21° |
| 2026-04-21 16:31 | 21.36169 | 113.64407 | 10883 ft | 358 kts | 19° |
| 2026-04-21 16:32 | 21.39238 | 113.65630 | 10793 ft | 342 kts | 19° |
| 2026-04-21 16:32 | 21.41404 | 113.66520 | 10649 ft | 328 kts | 20° |
| 2026-04-21 16:32 | 21.42824 | 113.67125 | 10547 ft | 319 kts | 20° |
| 2026-04-21 16:32 | 21.45567 | 113.68004 | 10373 ft | 300 kts | 6° |
| 2026-04-21 16:33 | 21.47627 | 113.68069 | 10029 ft | 293 kts | 353° |
| 2026-04-21 16:33 | 21.48982 | 113.67915 | 9764 ft | 292 kts | 350° |
| 2026-04-21 16:33 | 21.50991 | 113.67607 | 9359 ft | 291 kts | 349° |
| 2026-04-21 16:33 | 21.52989 | 113.67314 | 8989 ft | 290 kts | 350° |
| 2026-04-21 16:34 | 21.54987 | 113.67066 | 8879 ft | 286 kts | 352° |
| 2026-04-21 16:34 | 21.57009 | 113.66846 | 8883 ft | 291 kts | 352° |
| 2026-04-21 16:34 | 21.59684 | 113.66572 | 8883 ft | 291 kts | 352° |
| 2026-04-21 16:34 | 21.61053 | 113.66434 | 8883 ft | 291 kts | 352° |
| 2026-04-21 16:35 | 21.63064 | 113.66229 | 8883 ft | 291 kts | 352° |
| 2026-04-21 16:35 | 21.65083 | 113.66024 | 8883 ft | 291 kts | 352° |
| 2026-04-21 16:35 | 21.67776 | 113.65747 | 8883 ft | 291 kts | 352° |
| 2026-04-21 16:35 | 21.69124 | 113.65609 | 8882 ft | 291 kts | 352° |
| 2026-04-21 16:36 | 21.71839 | 113.65330 | 8883 ft | 291 kts | 352° |
| 2026-04-21 16:36 | 21.73196 | 113.65189 | 8882 ft | 291 kts | 352° |
| 2026-04-21 16:36 | 21.75213 | 113.64982 | 8879 ft | 291 kts | 352° |
| 2026-04-21 16:36 | 21.77232 | 113.64774 | 8881 ft | 292 kts | 352° |
| 2026-04-21 16:37 | 21.79281 | 113.64563 | 8879 ft | 292 kts | 352° |
| 2026-04-21 16:37 | 21.81300 | 113.64356 | 8878 ft | 292 kts | 352° |
| 2026-04-21 16:37 | 21.83314 | 113.64148 | 8877 ft | 292 kts | 352° |
| 2026-04-21 16:37 | 21.86030 | 113.63868 | 8875 ft | 291 kts | 352° |
| 2026-04-21 16:38 | 21.88053 | 113.63658 | 8877 ft | 291 kts | 352° |
| 2026-04-21 16:38 | 21.90067 | 113.63449 | 8883 ft | 291 kts | 352° |
| 2026-04-21 16:38 | 21.91418 | 113.63309 | 8882 ft | 291 kts | 352° |
| 2026-04-21 16:38 | 21.94113 | 113.63030 | 8876 ft | 291 kts | 352° |
| 2026-04-21 16:39 | 21.96146 | 113.62820 | 8883 ft | 292 kts | 352° |
| 2026-04-21 16:39 | 21.97507 | 113.62678 | 8882 ft | 291 kts | 352° |
| 2026-04-21 16:39 | 21.99523 | 113.62470 | 8876 ft | 292 kts | 352° |
| 2026-04-21 16:39 | 22.01534 | 113.62141 | 8875 ft | 289 kts | 342° |
| 2026-04-21 16:40 | 22.03348 | 113.61290 | 8870 ft | 283 kts | 322° |
| 2026-04-21 16:40 | 22.05401 | 113.59546 | 8788 ft | 279 kts | 317° |
| 2026-04-21 16:40 | 22.06949 | 113.58247 | 8788 ft | 281 kts | 320° |
| 2026-04-21 16:40 | 22.08550 | 113.57019 | 8789 ft | 282 kts | 321° |
| 2026-04-21 16:41 | 22.09632 | 113.56222 | 8790 ft | 283 kts | 322° |
| 2026-04-21 16:41 | 22.11810 | 113.54638 | 8747 ft | 280 kts | 322° |
| 2026-04-21 16:41 | 22.12878 | 113.53842 | 8565 ft | 277 kts | 321° |
| 2026-04-21 16:41 | 22.14443 | 113.52645 | 8142 ft | 279 kts | 320° |
| 2026-04-21 16:42 | 22.16543 | 113.51017 | 7621 ft | 279 kts | 321° |
| 2026-04-21 16:42 | 22.17614 | 113.50188 | 7367 ft | 278 kts | 320° |
| 2026-04-21 16:42 | 22.19183 | 113.48978 | 7004 ft | 277 kts | 321° |
| 2026-04-21 16:42 | 22.20842 | 113.47898 | 6622 ft | 280 kts | 333° |
| 2026-04-21 16:43 | 22.22742 | 113.47465 | 6210 ft | 288 kts | 2° |
| 2026-04-21 16:43 | 22.24647 | 113.48085 | 5928 ft | 284 kts | 29° |
| 2026-04-21 16:43 | 22.26295 | 113.49211 | 5890 ft | 269 kts | 35° |
| 2026-04-21 16:43 | 22.27795 | 113.50332 | 5850 ft | 256 kts | 35° |
| 2026-04-21 16:44 | 22.29241 | 113.51382 | 5770 ft | 246 kts | 34° |
| 2026-04-21 16:44 | 22.30650 | 113.52364 | 5677 ft | 237 kts | 33° |
| 2026-04-21 16:44 | 22.32043 | 113.53313 | 5536 ft | 231 kts | 33° |
| 2026-04-21 16:44 | 22.33828 | 113.54517 | 5244 ft | 228 kts | 33° |
| 2026-04-21 16:45 | 22.34723 | 113.55128 | 5071 ft | 227 kts | 35° |
| 2026-04-21 16:45 | 22.35928 | 113.56229 | 4790 ft | 224 kts | 56° |
| 2026-04-21 16:45 | 22.36485 | 113.57744 | 4527 ft | 214 kts | 90° |
| 2026-04-21 16:45 | 22.36454 | 113.59320 | 4292 ft | 209 kts | 102° |
| 2026-04-21 16:46 | 22.36042 | 113.60774 | 4049 ft | 201 kts | 124° |
| 2026-04-21 16:46 | 22.35148 | 113.61861 | 3888 ft | 188 kts | 149° |
| 2026-04-21 16:46 | 22.34008 | 113.62402 | 3777 ft | 170 kts | 167° |
| 2026-04-21 16:46 | 22.32572 | 113.62811 | 3614 ft | 144 kts | 166° |
| 2026-04-21 16:47 | 22.31671 | 113.63090 | 3476 ft | 125 kts | 166° |
| 2026-04-21 16:47 | 22.30842 | 113.63350 | 3122 ft | 125 kts | 166° |
| 2026-04-21 16:47 | 22.30014 | 113.63609 | 2765 ft | 125 kts | 165° |
| 2026-04-21 16:47 | 22.29200 | 113.63864 | 2535 ft | 117 kts | 165° |
| 2026-04-21 16:48 | 22.28674 | 113.64008 | 2373 ft | 117 kts | 170° |
| 2026-04-21 16:48 | 22.27852 | 113.64056 | 2413 ft | 123 kts | 183° |
| 2026-04-21 16:48 | 22.26992 | 113.63896 | 2384 ft | 124 kts | 194° |
| 2026-04-21 16:48 | 22.26176 | 113.63534 | 2230 ft | 128 kts | 206° |
| 2026-04-21 16:49 | 22.25228 | 113.62741 | 1990 ft | 131 kts | 222° |
| 2026-04-21 16:49 | 22.24836 | 113.62231 | 1869 ft | 133 kts | 229° |
| 2026-04-21 16:49 | 22.24290 | 113.61419 | 1678 ft | 134 kts | 230° |
| 2026-04-21 16:49 | 22.23745 | 113.60596 | 1515 ft | 133 kts | 230° |
| 2026-04-21 16:50 | 22.23208 | 113.59798 | 1323 ft | 132 kts | 229° |
| 2026-04-21 16:50 | 22.22442 | 113.58766 | 1063 ft | 131 kts | 224° |
| 2026-04-21 16:50 | 22.22032 | 113.58294 | 949 ft | 129 kts | 220° |
| 2026-04-21 16:50 | 22.21307 | 113.57745 | 744 ft | 129 kts | 202° |
| 2026-04-21 16:51 | 22.20461 | 113.57493 | 601 ft | 124 kts | 187° |
| 2026-04-21 16:51 | 22.19587 | 113.57459 | 411 ft | 125 kts | 175° |
| 2026-04-21 16:51 | 22.18752 | 113.57703 | 294 ft | 125 kts | 158° |
| 2026-04-21 16:51 | 22.17935 | 113.58069 | 238 ft | 127 kts | 164° |
| 2026-04-21 16:52 | 22.17082 | 113.58362 | 204 ft | 124 kts | 163° |
| 2026-04-21 16:52 | 22.16252 | 113.58662 | 103 ft | 126 kts | 165° |
| 2026-04-21 16:52 | 22.15446 | 113.58950 | 29 ft | 118 kts | 162° |
| 2026-04-21 16:52 | 22.14771 | 113.59200 | 12 ft | 71 kts | 159° |
| 2026-04-21 16:53 | 22.14560 | 113.59280 | 12 ft | 0 kts | 161° |
| 2026-04-21 16:53 | 22.14535 | 113.59290 | 12 ft | 7 kts | 161° |
| 2026-04-21 16:53 | 22.14457 | 113.59319 | 12 ft | 16 kts | 162° |
| 2026-04-21 16:54 | 22.14334 | 113.59362 | 12 ft | 19 kts | 162° |
| 2026-04-21 16:54 | 22.14248 | 113.59392 | 12 ft | 18 kts | 162° |
| 2026-04-21 16:54 | 22.14151 | 113.59345 | 12 ft | 17 kts | 250° |
| 2026-04-21 16:54 | 22.14168 | 113.59238 | 12 ft | 15 kts | 330° |
| 2026-04-21 16:55 | 22.14274 | 113.59199 | 12 ft | 16 kts | 342° |
| 2026-04-21 16:55 | 22.14381 | 113.59160 | 12 ft | 16 kts | 341° |
| 2026-04-21 16:55 | 22.14495 | 113.59117 | 12 ft | 19 kts | 341° |
| 2026-04-21 16:55 | 22.14677 | 113.59050 | 12 ft | 20 kts | 342° |
| 2026-04-21 16:56 | 22.14781 | 113.58950 | 11 ft | 21 kts | 303° |
| 2026-04-21 16:56 | 22.14866 | 113.58813 | 10 ft | 22 kts | 302° |
| 2026-04-21 16:56 | 22.14955 | 113.58669 | 9 ft | 23 kts | 304° |
| 2026-04-21 16:56 | 22.15044 | 113.58525 | 9 ft | 23 kts | 304° |
| 2026-04-21 16:57 | 22.15104 | 113.58428 | 9 ft | 23 kts | 304° |
| 2026-04-21 16:57 | 22.15193 | 113.58280 | 9 ft | 23 kts | 303° |
| 2026-04-21 16:57 | 22.15287 | 113.58131 | 9 ft | 24 kts | 304° |
| 2026-04-21 16:57 | 22.15380 | 113.57980 | 10 ft | 24 kts | 303° |
| 2026-04-21 16:58 | 22.15472 | 113.57833 | 12 ft | 23 kts | 303° |
| 2026-04-21 16:58 | 22.15560 | 113.57689 | 14 ft | 22 kts | 303° |
| 2026-04-21 16:58 | 22.15609 | 113.57545 | 19 ft | 18 kts | 271° |
| 2026-04-21 16:58 | 22.15652 | 113.57469 | 22 ft | 0 kts | 324° |